createdAt,value
2018-12-19T00:01:03.138Z,30.67
2018-12-19T00:03:31.569Z,32.77
2018-12-19T00:06:00.071Z,33.47
2018-12-19T00:08:28.828Z,30.37
2018-12-19T00:10:57.322Z,31.07
2018-12-19T00:13:25.876Z,30.07
2018-12-19T00:15:54.327Z,27.57
2018-12-19T00:18:23.156Z,31.13
2018-12-19T00:20:51.656Z,30.97
2018-12-19T00:23:20.140Z,31.50
2018-12-19T00:25:48.608Z,32.80
2018-12-19T00:28:17.122Z,30.63
2018-12-19T00:30:45.691Z,31.00
2018-12-19T00:33:14.171Z,28.80
2018-12-19T00:35:42.679Z,30.30
2018-12-19T00:38:11.324Z,29.50
2018-12-19T00:40:39.795Z,32.03
2018-12-19T00:43:08.631Z,31.67
2018-12-19T00:45:37.103Z,32.40
2018-12-19T00:48:05.724Z,32.33
2018-12-19T00:50:34.207Z,29.27
2018-12-19T00:53:02.948Z,34.13
2018-12-19T00:55:31.432Z,30.53
2018-12-19T00:57:59.960Z,32.70
2018-12-19T01:00:28.736Z,31.03
2018-12-19T01:02:57.776Z,30.60
2018-12-19T01:05:26.260Z,31.20
2018-12-19T01:07:54.828Z,33.13
2018-12-19T01:10:23.479Z,31.50
2018-12-19T01:12:52.256Z,30.33
2018-12-19T01:15:20.744Z,29.40
2018-12-19T01:17:49.207Z,31.13
2018-12-19T01:20:17.979Z,29.83
2018-12-19T01:22:47.092Z,31.30
2018-12-19T01:25:15.517Z,30.63
2018-12-19T01:27:44.009Z,30.37
2018-12-19T01:30:12.507Z,30.83
2018-12-19T01:32:41.096Z,29.57
2018-12-19T01:35:09.528Z,30.73
2018-12-19T01:37:37.984Z,29.03
2018-12-19T01:40:06.623Z,27.50
2018-12-19T01:42:35.111Z,28.23
2018-12-19T01:45:03.643Z,29.63
2018-12-19T01:47:32.235Z,31.30
2018-12-19T01:50:00.723Z,28.80
2018-12-19T01:52:29.172Z,27.50
2018-12-19T01:55:04.256Z,31.63
2018-12-19T01:57:32.703Z,29.90
2018-12-19T02:00:01.151Z,29.67
2018-12-19T02:02:29.651Z,29.90
2018-12-19T02:04:58.411Z,30.83
2018-12-19T02:07:26.855Z,29.33
2018-12-19T02:09:55.684Z,32.00
2018-12-19T02:12:24.179Z,31.83
2018-12-19T02:14:52.949Z,32.17
2018-12-19T02:17:21.391Z,31.03
2018-12-19T02:19:49.862Z,29.53
2018-12-19T02:22:18.770Z,29.27
2018-12-19T02:24:47.251Z,30.30
2018-12-19T02:27:15.706Z,32.30
2018-12-19T02:29:44.199Z,30.53
2018-12-19T02:32:12.665Z,29.43
2018-12-19T02:34:41.480Z,30.83
2018-12-19T02:37:10.263Z,28.33
2018-12-19T02:39:39.123Z,30.60
2018-12-19T02:42:07.667Z,32.47
2018-12-19T02:44:36.110Z,33.47
2018-12-19T02:47:05.186Z,30.63
2018-12-19T02:49:33.646Z,34.10
2018-12-19T02:52:02.486Z,30.20
2018-12-19T02:54:30.962Z,31.90
2018-12-19T02:56:59.414Z,32.00
2018-12-19T02:59:28.198Z,31.60
2018-12-19T03:01:57.032Z,29.30
2018-12-19T03:04:25.678Z,32.10
2018-12-19T03:06:54.060Z,31.87
2018-12-19T03:09:22.528Z,33.90
2018-12-19T03:11:51.004Z,33.07
2018-12-19T03:14:19.444Z,32.30
2018-12-19T03:16:47.901Z,34.60
2018-12-19T03:19:16.399Z,33.23
2018-12-19T03:21:44.935Z,34.10
2018-12-19T03:24:13.421Z,32.50
2018-12-19T03:26:41.885Z,34.27
2018-12-19T03:29:10.347Z,34.63
2018-12-19T03:31:38.805Z,31.53
2018-12-19T03:34:07.342Z,34.67
2018-12-19T03:36:35.951Z,33.53
2018-12-19T03:39:07.379Z,33.53
2018-12-19T03:41:35.996Z,34.13
2018-12-19T03:44:05.095Z,33.30
2018-12-19T03:46:33.601Z,33.43
2018-12-19T03:49:02.396Z,33.83
2018-12-19T03:51:31.151Z,32.57
2018-12-19T03:53:59.612Z,33.87
2018-12-19T03:56:28.159Z,35.17
2018-12-19T03:58:56.623Z,36.23
2018-12-19T04:01:25.356Z,37.87
2018-12-19T04:03:53.928Z,37.93
2018-12-19T04:06:22.383Z,35.37
2018-12-19T04:08:50.848Z,35.80
2018-12-19T04:11:19.900Z,34.60
2018-12-19T04:13:49.159Z,35.07
2018-12-19T04:16:17.635Z,35.93
2018-12-19T04:18:46.832Z,35.33
2018-12-19T04:21:15.381Z,34.10
2018-12-19T04:23:43.812Z,35.63
2018-12-19T04:26:12.228Z,35.53
2018-12-19T04:28:40.672Z,37.17
2018-12-19T04:31:09.804Z,39.17
2018-12-19T04:33:38.362Z,37.80
2018-12-19T04:36:07.149Z,35.93
2018-12-19T04:38:35.698Z,37.70
2018-12-19T04:41:04.517Z,37.07
2018-12-19T04:43:33.068Z,34.93
2018-12-19T04:46:01.732Z,37.30
2018-12-19T04:48:30.208Z,36.37
2018-12-19T04:50:58.746Z,37.57
2018-12-19T04:53:27.216Z,34.83
2018-12-19T04:55:55.971Z,34.73
2018-12-19T04:58:24.441Z,36.13
2018-12-19T05:00:52.945Z,37.33
2018-12-19T05:03:21.421Z,37.97
2018-12-19T05:05:50.333Z,35.53
2018-12-19T05:08:18.936Z,38.90
2018-12-19T05:10:47.512Z,38.80
2018-12-19T05:13:16.217Z,39.33
2018-12-19T05:15:45.065Z,38.73
2018-12-19T05:18:13.864Z,36.30
2018-12-19T05:20:42.692Z,37.17
2018-12-19T05:23:11.452Z,37.17
2018-12-19T05:25:40.520Z,37.43
2018-12-19T05:28:09.249Z,35.63
2018-12-19T05:30:37.952Z,37.43
2018-12-19T05:33:06.731Z,37.30
2018-12-19T05:35:35.356Z,38.17
2018-12-19T05:38:04.792Z,36.80
2018-12-19T05:40:33.368Z,37.87
2018-12-19T05:43:02.032Z,37.47
2018-12-19T05:45:30.609Z,35.60
2018-12-19T05:47:59.804Z,35.93
2018-12-19T05:50:29.036Z,37.17
2018-12-19T05:52:58.005Z,37.77
2018-12-19T05:55:26.612Z,36.90
2018-12-19T05:57:55.206Z,38.03
2018-12-19T06:00:26.652Z,36.80
2018-12-19T06:02:55.305Z,37.30
2018-12-19T06:05:23.925Z,36.03
2018-12-19T06:07:52.827Z,35.07
2018-12-19T06:10:26.116Z,34.33
2018-12-19T06:12:50.469Z,34.10
2018-12-19T06:15:19.116Z,34.83
2018-12-19T06:17:48.252Z,34.87
2018-12-19T06:20:16.847Z,35.00
2018-12-19T06:22:45.407Z,35.80
2018-12-19T06:25:14.210Z,37.50
2018-12-19T06:27:42.696Z,35.90
2018-12-19T06:30:11.203Z,35.85
2018-12-19T06:32:39.716Z,35.87
2018-12-19T06:35:08.211Z,32.83
2018-12-19T06:37:36.659Z,34.77
2018-12-19T06:40:06.575Z,35.83
2018-12-19T06:42:35.201Z,32.63
2018-12-19T06:45:05.255Z,34.17
2018-12-19T06:47:34.135Z,35.77
2018-12-19T06:50:03.006Z,34.97
2018-12-19T06:52:32.031Z,36.40
2018-12-19T06:55:00.597Z,36.40
2018-12-19T06:57:29.723Z,35.17
2018-12-19T06:59:58.223Z,31.97
2018-12-19T07:02:33.019Z,30.93
2018-12-19T07:05:01.508Z,29.77
2018-12-19T07:07:30.143Z,29.77
2018-12-19T07:09:58.675Z,31.87
2018-12-19T07:12:28.895Z,29.70
2018-12-19T07:14:57.427Z,30.37
2018-12-19T07:17:26.087Z,30.57
2018-12-19T07:19:54.963Z,29.63
2018-12-19T07:22:23.411Z,30.43
2018-12-19T07:24:51.915Z,29.73
2018-12-19T07:27:20.483Z,30.20
2018-12-19T07:29:49.063Z,29.57
2018-12-19T07:32:17.542Z,31.00
2018-12-19T07:34:46.315Z,31.00
2018-12-19T07:37:14.915Z,32.93
2018-12-19T07:39:43.399Z,35.40
2018-12-19T07:42:12.191Z,37.60
2018-12-19T07:44:40.801Z,37.87
2018-12-19T07:47:09.339Z,32.53
2018-12-19T07:49:38.203Z,34.50
2018-12-19T07:52:06.775Z,31.00
2018-12-19T07:54:35.276Z,30.30
2018-12-19T07:57:03.808Z,29.57
2018-12-19T07:59:32.290Z,29.47
2018-12-19T08:02:01.106Z,28.77
2018-12-19T08:04:44.403Z,28.77
2018-12-19T08:07:12.907Z,29.23
2018-12-19T08:09:41.746Z,28.17
2018-12-19T08:12:10.247Z,27.83
2018-12-19T08:14:38.887Z,27.00
2018-12-19T08:17:07.825Z,28.17
2018-12-19T08:19:36.446Z,28.33
2018-12-19T08:22:04.922Z,28.37
2018-12-19T08:24:33.406Z,26.90
2018-12-19T08:27:02.146Z,29.73
2018-12-19T08:29:30.592Z,25.20
2018-12-19T08:31:59.086Z,28.30
2018-12-19T08:34:27.846Z,24.13
2018-12-19T08:36:56.798Z,26.77
2018-12-19T08:39:25.287Z,29.00
2018-12-19T08:41:54.922Z,29.50
2018-12-19T08:44:24.435Z,27.23
2018-12-19T08:46:52.442Z,32.83
2018-12-19T08:49:21.090Z,31.93
2018-12-19T08:51:49.562Z,33.00
2018-12-19T08:54:18.050Z,32.83
2018-12-19T08:56:46.606Z,31.23
2018-12-19T08:59:15.094Z,30.33
2018-12-19T09:01:44.255Z,31.37
2018-12-19T09:04:12.686Z,29.93
2018-12-19T09:06:41.499Z,28.27
2018-12-19T09:09:10.238Z,29.93
2018-12-19T09:11:38.667Z,29.43
2018-12-19T09:14:07.142Z,30.00
2018-12-19T09:16:35.683Z,30.53
2018-12-19T09:19:04.790Z,32.40
2018-12-19T09:21:33.270Z,31.80
2018-12-19T09:24:02.007Z,29.77
2018-12-19T09:26:30.585Z,31.80
2018-12-19T09:28:59.078Z,32.07
2018-12-19T09:31:27.886Z,32.97
2018-12-19T09:33:56.337Z,31.37
2018-12-19T09:36:24.817Z,30.90
2018-12-19T09:38:53.270Z,29.77
2018-12-19T09:41:21.721Z,30.40
2018-12-19T09:43:50.261Z,29.50
2018-12-19T09:46:18.720Z,28.32
2018-12-19T09:48:47.524Z,29.67
2018-12-19T09:51:16.033Z,30.57
2018-12-19T09:53:44.608Z,30.10
2018-12-19T09:56:13.425Z,27.73
2018-12-19T09:58:41.969Z,27.37
2018-12-19T10:01:10.569Z,28.75
2018-12-19T10:03:39.845Z,27.33
2018-12-19T10:06:08.373Z,27.00
2018-12-19T10:08:36.848Z,27.37
2018-12-19T10:11:05.597Z,26.03
2018-12-19T10:13:34.052Z,28.03
2018-12-19T10:16:04.165Z,23.90
2018-12-19T10:18:31.215Z,23.70
2018-12-19T10:21:01.408Z,21.20
2018-12-19T10:23:29.917Z,23.03
2018-12-19T10:26:14.146Z,19.67
2018-12-19T10:28:42.605Z,19.70
2018-12-19T10:31:11.128Z,19.47
2018-12-19T10:33:39.680Z,18.80
2018-12-19T10:36:08.469Z,16.37
2018-12-19T10:38:37.251Z,17.97
2018-12-19T10:41:05.684Z,13.77
2018-12-19T10:43:34.262Z,15.07
2018-12-19T10:46:03.289Z,15.13
2018-12-19T10:48:31.781Z,16.93
2018-12-19T10:51:00.552Z,16.13
2018-12-19T10:53:29.349Z,11.40
2018-12-19T10:55:57.775Z,16.50
2018-12-19T10:58:26.405Z,16.43
2018-12-19T11:01:01.372Z,15.47
2018-12-19T11:03:29.862Z,16.37
2018-12-19T11:05:58.537Z,17.63
2018-12-19T11:08:27.104Z,17.73
2018-12-19T11:10:55.985Z,17.57
2018-12-19T11:13:24.464Z,17.98
2018-12-19T11:15:53.597Z,18.47
2018-12-19T11:18:22.396Z,17.57
2018-12-19T11:20:51.518Z,16.83
2018-12-19T11:23:19.964Z,18.33
2018-12-19T11:25:48.444Z,18.63
2018-12-19T11:28:16.893Z,19.27
2018-12-19T11:30:45.476Z,17.47
2018-12-19T11:33:14.240Z,18.97
2018-12-19T11:35:42.716Z,20.30
2018-12-19T11:38:11.548Z,20.90
2018-12-19T11:40:40.000Z,20.27
2018-12-19T11:43:08.573Z,19.50
2018-12-19T11:45:37.016Z,19.23
2018-12-19T11:49:08.392Z,18.97
2018-12-19T11:51:36.853Z,16.90
2018-12-19T11:54:05.284Z,18.67
2018-12-19T11:56:33.789Z,19.50
2018-12-19T11:59:02.777Z,14.17
2018-12-19T12:01:31.528Z,18.43
2018-12-19T12:04:00.168Z,19.17
2018-12-19T12:06:29.353Z,19.33
2018-12-19T12:08:58.001Z,17.47
2018-12-19T12:11:26.648Z,21.33
2018-12-19T12:13:55.740Z,19.97
2018-12-19T12:16:24.628Z,20.82
2018-12-19T12:18:53.424Z,19.57
2018-12-19T12:21:22.171Z,20.37
2018-12-19T12:23:50.888Z,19.90
2018-12-19T12:26:19.552Z,21.73
2018-12-19T12:28:48.228Z,21.50
2018-12-19T12:31:17.164Z,19.67
2018-12-19T12:33:47.997Z,20.63
2018-12-19T12:36:16.709Z,21.47
2018-12-19T12:38:45.448Z,21.70
2018-12-19T12:41:14.596Z,22.30
2018-12-19T12:43:43.526Z,21.23
2018-12-19T12:46:12.340Z,23.67
2018-12-19T12:48:41.344Z,24.40
2018-12-19T12:51:10.217Z,23.53
2018-12-19T12:53:39.074Z,17.07
2018-12-19T12:56:07.721Z,17.77
2018-12-19T12:58:36.296Z,15.83
2018-12-19T13:01:05.182Z,17.82
2018-12-19T13:03:34.020Z,16.30
2018-12-19T13:06:03.588Z,15.87
2018-12-19T13:08:32.920Z,16.17
2018-12-19T13:11:01.593Z,18.83
2018-12-19T13:13:30.177Z,20.30
2018-12-19T13:15:58.893Z,18.57
2018-12-19T13:18:27.521Z,19.00
2018-12-19T13:20:56.196Z,19.30
2018-12-19T13:23:25.088Z,20.23
2018-12-19T13:25:53.780Z,15.77
2018-12-19T13:28:22.740Z,22.70
2018-12-19T13:30:52.272Z,15.33
2018-12-19T13:33:20.937Z,19.97
2018-12-19T13:35:49.620Z,19.17
2018-12-19T13:38:18.315Z,20.17
2018-12-19T13:43:30.116Z,19.27
2018-12-19T13:45:59.179Z,19.93
2018-12-19T13:48:27.939Z,16.13
2018-12-19T13:50:56.739Z,20.43
2018-12-19T13:53:25.500Z,19.57
2018-12-19T13:55:54.476Z,26.00
2018-12-19T13:58:23.039Z,24.60
2018-12-19T14:00:51.592Z,22.83
2018-12-19T14:03:20.111Z,20.77
2018-12-19T14:05:48.692Z,25.30
2018-12-19T14:08:17.476Z,19.47
2018-12-19T14:10:46.520Z,24.57
2018-12-19T14:13:15.639Z,20.13
2018-12-19T14:15:44.185Z,22.47
2018-12-19T14:18:12.691Z,24.63
2018-12-19T14:20:41.576Z,22.93
2018-12-19T14:23:10.103Z,20.63
2018-12-19T14:25:38.700Z,15.13
2018-12-19T14:28:07.219Z,24.10
2018-12-19T14:30:36.912Z,23.23
2018-12-19T14:36:37.079Z,23.07
2018-12-19T14:39:08.031Z,22.57
2018-12-19T14:41:36.747Z,16.60
2018-12-19T14:44:05.279Z,22.47
2018-12-19T14:46:33.839Z,23.43
2018-12-19T14:49:03.073Z,24.07
2018-12-19T14:51:31.742Z,26.10
2018-12-19T14:54:00.332Z,24.17
2018-12-19T14:56:29.124Z,21.67
2018-12-19T14:58:57.992Z,15.00
2018-12-19T15:01:26.727Z,22.53
2018-12-19T15:03:57.835Z,24.53
2018-12-19T15:06:27.003Z,25.20
2018-12-19T15:08:55.650Z,23.10
2018-12-19T15:11:24.455Z,24.40
2018-12-19T15:13:53.799Z,25.47
2018-12-19T15:16:23.898Z,23.95
2018-12-19T15:18:52.859Z,24.87
2018-12-19T15:21:21.902Z,23.47
2018-12-19T15:23:51.914Z,23.97
2018-12-19T15:26:20.965Z,23.13
2018-12-19T15:28:49.970Z,24.47
2018-12-19T15:31:19.015Z,23.83
2018-12-19T15:33:48.006Z,24.27
2018-12-19T15:36:17.038Z,24.57
2018-12-19T15:38:46.103Z,25.87
2018-12-19T15:41:15.209Z,26.50
2018-12-19T15:43:44.178Z,26.87
2018-12-19T15:46:13.450Z,23.60
2018-12-19T15:48:42.778Z,25.20
2018-12-19T15:51:11.850Z,16.75
2018-12-19T15:53:40.862Z,26.60
2018-12-19T15:56:09.874Z,26.20
2018-12-19T15:58:38.867Z,25.80
2018-12-19T16:01:07.714Z,23.27
2018-12-19T16:03:36.654Z,19.63
2018-12-19T16:06:05.488Z,22.97
2018-12-19T16:08:34.195Z,22.27
2018-12-19T16:11:03.418Z,24.37
2018-12-19T16:13:32.254Z,23.90
2018-12-19T16:16:00.974Z,20.47
2018-12-19T16:18:30.254Z,22.20
2018-12-19T16:20:59.272Z,25.17
2018-12-19T16:23:28.918Z,20.33
2018-12-19T16:25:57.702Z,23.83
2018-12-19T16:28:26.678Z,23.65
2018-12-19T16:30:55.451Z,22.07
2018-12-19T16:33:24.154Z,24.30
2018-12-19T16:35:52.919Z,15.93
2018-12-19T16:38:21.702Z,24.10
2018-12-19T16:40:50.517Z,25.03
2018-12-19T16:43:19.590Z,16.23
2018-12-19T16:45:48.273Z,23.23
2018-12-19T16:48:17.022Z,21.90
2018-12-19T16:50:46.095Z,23.63
2018-12-19T16:53:14.693Z,21.97
2018-12-19T16:55:43.322Z,19.80
2018-12-19T16:58:12.442Z,22.70
2018-12-19T17:00:41.133Z,19.73
2018-12-19T17:03:10.122Z,21.10
2018-12-19T17:05:38.798Z,16.20
2018-12-19T17:08:07.498Z,12.53
2018-12-19T17:10:36.345Z,21.70
2018-12-19T17:13:05.521Z,20.90
2018-12-19T17:15:38.880Z,23.37
2018-12-19T17:18:09.502Z,20.93
2018-12-19T17:20:39.142Z,20.77
2018-12-19T17:23:08.194Z,22.97
2018-12-19T17:25:37.058Z,22.17
2018-12-19T17:28:06.046Z,22.20
2018-12-19T17:30:34.985Z,18.77
2018-12-19T17:37:56.341Z,20.93
2018-12-19T17:40:25.581Z,17.63
2018-12-19T17:42:59.376Z,18.43
2018-12-19T17:45:23.545Z,19.93
2018-12-19T17:47:52.291Z,21.10
2018-12-19T17:50:21.065Z,18.60
2018-12-19T17:52:50.227Z,20.93
2018-12-19T17:55:18.989Z,19.90
2018-12-19T17:57:48.085Z,15.60
2018-12-19T18:00:17.030Z,23.10
2018-12-19T18:02:45.921Z,18.93
2018-12-19T18:05:16.090Z,22.53
2018-12-19T18:07:48.982Z,20.30
2018-12-19T18:10:17.930Z,17.20
2018-12-19T18:12:47.021Z,21.77
2018-12-19T18:15:15.878Z,17.23
2018-12-19T18:17:44.953Z,21.53
2018-12-19T18:20:13.688Z,23.03
2018-12-19T18:22:42.857Z,21.93
2018-12-19T18:25:11.814Z,22.00
2018-12-19T18:27:40.713Z,13.57
2018-12-19T18:30:10.262Z,24.70
2018-12-19T18:32:39.089Z,19.07
2018-12-19T18:35:08.269Z,19.57
2018-12-19T18:37:37.525Z,22.20
2018-12-19T18:40:06.439Z,22.43
2018-12-19T18:42:35.414Z,16.90
2018-12-19T18:45:04.407Z,17.97
2018-12-19T18:47:35.186Z,21.57
2018-12-19T18:50:04.090Z,17.50
2018-12-19T18:52:32.945Z,23.43
2018-12-19T18:55:01.926Z,24.40
2018-12-19T18:57:31.062Z,24.67
2018-12-19T19:00:00.068Z,24.60
2018-12-19T19:02:29.433Z,25.30
2018-12-19T19:05:13.424Z,25.47
2018-12-19T19:07:42.974Z,23.27
2018-12-19T19:10:12.395Z,22.73
2018-12-19T19:12:41.735Z,22.77
2018-12-19T19:15:11.207Z,20.77
2018-12-19T19:17:40.470Z,28.10
2018-12-19T19:20:09.878Z,27.48
2018-12-19T19:22:39.984Z,28.17
2018-12-19T19:25:09.374Z,25.00
2018-12-19T19:27:38.726Z,24.63
2018-12-19T19:30:09.554Z,26.60
2018-12-19T19:32:38.878Z,27.03
2018-12-19T19:35:08.390Z,24.70
2018-12-19T19:37:42.742Z,26.03
2018-12-19T19:40:20.043Z,19.93
2018-12-19T19:42:50.070Z,18.53
2018-12-19T19:45:25.287Z,26.63
2018-12-19T19:47:56.366Z,23.30
2018-12-19T19:50:25.747Z,25.67
2018-12-19T19:52:55.272Z,25.00
2018-12-19T19:55:24.680Z,25.13
2018-12-19T19:57:58.515Z,26.80
2018-12-19T20:00:31.879Z,18.60
2018-12-19T20:03:01.687Z,23.10
2018-12-19T20:05:31.252Z,26.13
2018-12-19T20:08:00.995Z,26.90
2018-12-19T20:10:30.355Z,16.93
2018-12-19T20:12:59.636Z,24.90
2018-12-19T20:15:28.795Z,26.93
2018-12-19T20:17:58.103Z,25.03
2018-12-19T20:20:27.826Z,17.73
2018-12-19T20:22:57.003Z,27.43
2018-12-19T20:25:26.091Z,28.57
2018-12-19T20:27:55.374Z,27.93
2018-12-19T20:30:24.725Z,25.43
2018-12-19T20:32:54.121Z,23.63
2018-12-19T20:35:23.461Z,22.17
2018-12-19T20:37:52.805Z,29.07
2018-12-19T20:40:22.150Z,17.73
2018-12-19T20:42:51.925Z,28.93
2018-12-19T20:45:21.251Z,23.43
2018-12-19T20:47:50.675Z,27.80
2018-12-19T20:52:43.735Z,18.40
2018-12-19T20:55:12.884Z,28.63
2018-12-19T20:57:42.176Z,30.00
2018-12-19T21:00:11.689Z,20.40
2018-12-19T21:02:41.588Z,28.17
2018-12-19T21:05:10.844Z,22.67
2018-12-19T21:07:40.510Z,26.47
2018-12-19T21:10:09.959Z,26.07
2018-12-19T21:12:39.141Z,27.30
2018-12-19T21:15:08.790Z,28.13
2018-12-19T21:17:43.080Z,24.27
2018-12-19T21:20:12.422Z,26.60
2018-12-19T21:22:41.982Z,26.73
2018-12-19T21:25:11.291Z,23.97
2018-12-19T21:27:40.870Z,30.20
2018-12-19T21:30:10.736Z,27.77
2018-12-19T21:32:40.143Z,28.37
2018-12-19T21:35:09.474Z,30.17
2018-12-19T21:37:40.272Z,28.67
2018-12-19T21:40:09.895Z,27.63
2018-12-19T21:42:39.066Z,27.70
2018-12-19T21:45:07.914Z,28.47
2018-12-19T21:47:36.510Z,29.83
2018-12-19T21:50:05.382Z,30.00
2018-12-19T21:52:34.140Z,28.07
2018-12-19T21:55:02.984Z,29.10
2018-12-19T21:57:31.850Z,32.60
2018-12-19T22:00:00.511Z,30.13
2018-12-19T22:02:29.359Z,24.97
2018-12-19T22:04:57.908Z,29.83
2018-12-19T22:07:26.623Z,27.93
2018-12-19T22:10:09.558Z,26.93
2018-12-19T22:12:38.300Z,30.60
2018-12-19T22:15:07.194Z,28.50
2018-12-19T22:17:54.761Z,29.63
2018-12-19T22:20:23.393Z,31.00
2018-12-19T22:22:51.992Z,32.57
2018-12-19T22:26:23.495Z,26.35
2018-12-19T22:28:52.083Z,31.77
2018-12-19T22:31:20.638Z,30.80
2018-12-19T22:33:49.234Z,28.57
2018-12-19T22:36:18.019Z,31.57
2018-12-19T22:38:46.640Z,30.57
2018-12-19T22:41:15.269Z,30.50
2018-12-19T22:43:43.774Z,30.80
2018-12-19T22:46:12.579Z,29.03
2018-12-19T22:48:41.311Z,30.23
2018-12-19T22:51:09.957Z,28.87
2018-12-19T22:53:38.676Z,30.20
2018-12-19T22:56:07.945Z,27.60
2018-12-19T22:58:36.540Z,29.57
2018-12-19T23:01:10.383Z,28.53
2018-12-19T23:03:44.109Z,32.90
2018-12-19T23:06:13.332Z,30.47
2018-12-19T23:08:41.964Z,27.37
2018-12-19T23:11:10.428Z,28.17
2018-12-19T23:13:39.309Z,24.53
2018-12-19T23:16:08.445Z,31.40
2018-12-19T23:18:37.920Z,31.10
2018-12-19T23:21:05.536Z,32.20
2018-12-19T23:23:34.097Z,27.67
2018-12-19T23:26:02.675Z,29.63
2018-12-19T23:28:31.157Z,27.93
2018-12-19T23:30:59.684Z,28.63
2018-12-19T23:33:28.205Z,31.23
2018-12-19T23:35:56.781Z,29.47
2018-12-19T23:38:25.493Z,29.50
2018-12-19T23:40:53.902Z,30.07
2018-12-19T23:43:22.481Z,30.00
2018-12-19T23:45:51.029Z,31.10
2018-12-19T23:48:19.938Z,31.15
2018-12-19T23:50:48.592Z,30.20
2018-12-19T23:53:17.111Z,30.97
2018-12-19T23:55:45.567Z,29.90
2018-12-19T23:58:14.420Z,29.73
